createdAt,value
2019-04-14T00:02:27.289Z,73.10
2019-04-14T00:04:59.656Z,73.30
2019-04-14T00:07:30.290Z,73.21
2019-04-14T00:10:00.756Z,73.08
2019-04-14T00:12:34.263Z,72.94
2019-04-14T00:15:19.331Z,72.82
2019-04-14T00:17:43.536Z,72.60
2019-04-14T00:20:18.494Z,72.41
2019-04-14T00:22:53.424Z,72.21
2019-04-14T00:25:26.461Z,72.11
2019-04-14T00:27:56.841Z,72.03
2019-04-14T00:30:27.431Z,72.02
2019-04-14T00:33:01.805Z,71.97
2019-04-14T00:35:47.147Z,71.95
2019-04-14T00:38:27.997Z,71.95
2019-04-14T00:41:17.983Z,71.91
2019-04-14T00:44:03.550Z,71.89
2019-04-14T00:46:40.937Z,71.87
2019-04-14T00:49:11.496Z,71.88
2019-04-14T00:51:42.424Z,71.90
2019-04-14T00:54:13.261Z,71.93
2019-04-14T00:56:43.698Z,71.93
2019-04-14T00:59:14.024Z,71.96
2019-04-14T01:01:44.560Z,71.98
2019-04-14T01:04:14.963Z,71.99
2019-04-14T01:06:45.357Z,71.98
2019-04-14T01:09:17.173Z,71.93
2019-04-14T01:11:48.765Z,71.88
2019-04-14T01:14:19.170Z,71.89
2019-04-14T01:16:49.810Z,71.94
2019-04-14T01:19:20.191Z,71.97
2019-04-14T01:21:50.623Z,71.99
2019-04-14T01:24:21.021Z,72.01
2019-04-14T01:26:51.355Z,71.94
2019-04-14T01:29:21.592Z,71.94
2019-04-14T01:31:52.150Z,71.90
2019-04-14T01:34:23.717Z,71.89
2019-04-14T01:36:54.273Z,71.93
2019-04-14T01:39:24.953Z,72.03
2019-04-14T01:41:56.449Z,72.22
2019-04-14T01:44:27.061Z,72.44
2019-04-14T01:46:58.818Z,72.63
2019-04-14T01:49:29.167Z,72.77
2019-04-14T01:52:25.233Z,73.00
2019-04-14T01:55:20.700Z,73.13
2019-04-14T01:58:10.203Z,73.25
2019-04-14T02:01:09.146Z,73.39
2019-04-14T02:03:40.899Z,73.48
2019-04-14T02:06:11.516Z,73.61
2019-04-14T02:08:43.552Z,73.70
2019-04-14T02:11:14.019Z,73.82
2019-04-14T02:13:44.455Z,73.92
2019-04-14T02:16:23.997Z,74.00
2019-04-14T02:18:47.426Z,74.09
2019-04-14T02:21:19.433Z,74.16
2019-04-14T02:23:49.915Z,74.21
2019-04-14T02:26:20.229Z,74.29
2019-04-14T02:28:50.779Z,74.35
2019-04-14T02:31:35.719Z,74.41
2019-04-14T02:34:31.996Z,74.42
2019-04-14T02:36:58.737Z,74.49
2019-04-14T02:39:42.065Z,74.55
2019-04-14T02:42:17.937Z,74.54
2019-04-14T02:44:33.922Z,74.66
2019-04-14T02:47:11.666Z,74.71
2019-04-14T02:49:36.356Z,74.74
2019-04-14T02:52:04.775Z,74.87
2019-04-14T02:54:45.161Z,74.92
2019-04-14T02:57:10.071Z,75.03
2019-04-14T02:59:45.334Z,75.11
2019-04-14T03:02:22.994Z,75.15
2019-04-14T03:04:47.232Z,75.22
2019-04-14T03:07:21.962Z,75.23
2019-04-14T03:09:50.229Z,75.30
2019-04-14T03:12:29.102Z,75.38
2019-04-14T03:14:55.580Z,75.39
2019-04-14T03:17:36.875Z,75.45
2019-04-14T03:20:30.393Z,75.50
2019-04-14T03:23:13.860Z,75.56
2019-04-14T03:25:41.410Z,75.57
2019-04-14T03:28:31.810Z,75.59
2019-04-14T03:31:39.623Z,75.61
2019-04-14T03:37:04.752Z,75.69
2019-04-14T03:39:00.849Z,75.75
2019-04-14T03:43:48.456Z,75.85
2019-04-14T03:49:07.462Z,75.92
2019-04-14T03:51:48.590Z,75.90
2019-04-14T03:53:58.442Z,75.83
2019-04-14T03:56:51.427Z,75.73
2019-04-14T03:59:22.072Z,75.63
2019-04-14T04:01:52.610Z,75.50
2019-04-14T04:04:22.948Z,75.44
2019-04-14T04:06:53.241Z,75.42
2019-04-14T04:09:30.049Z,75.45
2019-04-14T04:12:00.581Z,75.51
2019-04-14T04:14:31.323Z,75.62
2019-04-14T04:17:25.562Z,75.76
2019-04-14T04:20:09.580Z,75.96
2019-04-14T04:23:03.529Z,76.12
2019-04-14T04:25:51.487Z,76.20
2019-04-14T04:28:29.942Z,76.33
2019-04-14T04:31:06.742Z,76.46
2019-04-14T04:33:43.982Z,76.53
2019-04-14T04:36:24.824Z,76.60
2019-04-14T04:39:19.747Z,76.65
2019-04-14T04:41:53.786Z,76.70
2019-04-14T04:44:24.781Z,76.75
2019-04-14T04:46:55.312Z,76.78
2019-04-14T04:49:27.674Z,76.85
2019-04-14T04:51:57.551Z,76.93
2019-04-14T04:54:27.979Z,76.92
2019-04-14T04:57:00.125Z,77.01
2019-04-14T04:59:30.286Z,77.05
2019-04-14T05:02:00.499Z,77.08
2019-04-14T05:04:30.845Z,77.11
2019-04-14T05:07:03.602Z,77.16
2019-04-14T05:09:51.537Z,77.15
2019-04-14T05:12:39.102Z,77.18
2019-04-14T05:15:29.095Z,77.19
2019-04-14T05:18:00.406Z,77.22
2019-04-14T05:20:31.380Z,77.15
2019-04-14T05:23:01.737Z,77.12
2019-04-14T05:25:32.002Z,77.13
2019-04-14T05:28:02.641Z,77.12
2019-04-14T05:30:32.991Z,77.10
2019-04-14T05:33:03.283Z,77.10
2019-04-14T05:35:33.501Z,77.08
2019-04-14T05:38:04.058Z,77.10
2019-04-14T05:40:34.807Z,77.07
2019-04-14T05:43:05.102Z,77.03
2019-04-14T05:45:35.608Z,77.00
2019-04-14T05:48:07.459Z,76.94
2019-04-14T05:50:37.987Z,76.90
2019-04-14T05:53:08.661Z,76.83
2019-04-14T05:55:39.534Z,76.77
2019-04-14T05:58:10.015Z,76.70
2019-04-14T06:00:43.729Z,76.62
2019-04-14T06:03:14.588Z,76.54
2019-04-14T06:05:45.081Z,76.46
2019-04-14T06:08:15.407Z,76.40
2019-04-14T06:10:45.585Z,76.33
2019-04-14T06:13:15.883Z,76.24
2019-04-14T06:15:46.173Z,76.19
2019-04-14T06:18:16.389Z,76.10
2019-04-14T06:20:46.680Z,75.98
2019-04-14T06:23:16.871Z,75.83
2019-04-14T06:25:47.195Z,75.75
2019-04-14T06:28:17.448Z,75.66
2019-04-14T06:31:04.326Z,75.48
2019-04-14T06:33:59.447Z,75.40
2019-04-14T06:36:51.517Z,75.21
2019-04-14T06:39:24.800Z,75.04
2019-04-14T06:41:55.121Z,74.85
2019-04-14T06:44:25.327Z,74.71
2019-04-14T06:46:56.556Z,74.42
2019-04-14T06:49:28.030Z,74.24
2019-04-14T06:51:58.822Z,74.03
2019-04-14T06:54:29.129Z,73.79
2019-04-14T06:56:59.390Z,73.49
2019-04-14T06:59:29.727Z,73.32
2019-04-14T07:02:01.878Z,73.13
2019-04-14T07:04:32.190Z,72.92
2019-04-14T07:07:02.766Z,72.78
2019-04-14T07:09:33.427Z,72.62
2019-04-14T07:12:04.154Z,72.29
2019-04-14T07:14:34.844Z,71.87
2019-04-14T07:17:05.320Z,71.57
2019-04-14T07:19:35.767Z,71.27
2019-04-14T07:22:07.020Z,70.98
2019-04-14T07:24:37.381Z,70.85
2019-04-14T07:27:08.045Z,70.67
2019-04-14T07:29:44.769Z,70.54
2019-04-14T07:32:27.764Z,70.55
2019-04-14T07:35:07.941Z,70.31
2019-04-14T07:38:03.129Z,70.05
2019-04-14T07:40:51.272Z,69.58
2019-04-14T07:43:31.595Z,69.14
2019-04-14T07:46:07.429Z,68.94
2019-04-14T07:48:43.840Z,68.77
2019-04-14T07:51:34.803Z,68.48
2019-04-14T07:54:21.865Z,68.41
2019-04-14T07:57:08.767Z,68.12
2019-04-14T07:59:50.573Z,67.62
2019-04-14T08:02:49.097Z,67.15
2019-04-14T08:05:31.159Z,66.92
2019-04-14T08:08:01.546Z,66.66
2019-04-14T08:10:31.822Z,66.24
2019-04-14T08:13:02.112Z,66.04
2019-04-14T08:15:32.344Z,65.83
2019-04-14T08:18:02.619Z,65.43
2019-04-14T08:20:32.855Z,65.07
2019-04-14T08:23:02.981Z,64.82
2019-04-14T08:25:33.299Z,64.45
2019-04-14T08:28:07.081Z,64.13
2019-04-14T08:30:40.809Z,63.68
2019-04-14T08:33:11.209Z,63.52
2019-04-14T08:35:41.494Z,63.19
2019-04-14T08:38:11.706Z,62.67
2019-04-14T08:40:41.977Z,62.27
2019-04-14T08:43:19.310Z,61.88
2019-04-14T08:46:14.556Z,61.64
2019-04-14T08:48:51.195Z,61.30
2019-04-14T08:51:43.759Z,61.22
2019-04-14T08:54:36.133Z,60.99
2019-04-14T08:57:35.429Z,60.90
2019-04-14T09:00:26.753Z,60.49
2019-04-14T09:03:11.510Z,60.12
2019-04-14T09:06:07.735Z,60.02
2019-04-14T09:08:49.378Z,59.75
2019-04-14T09:11:28.414Z,59.60
2019-04-14T09:14:01.291Z,59.33
2019-04-14T09:16:37.579Z,58.94
2019-04-14T09:19:10.283Z,58.51
2019-04-14T09:21:42.796Z,58.24
2019-04-14T09:24:15.400Z,57.89
2019-04-14T09:26:50.507Z,57.54
2019-04-14T09:29:20.539Z,57.08
2019-04-14T09:31:50.847Z,56.73
2019-04-14T09:34:21.183Z,56.01
2019-04-14T09:36:51.612Z,55.33
2019-04-14T09:39:21.992Z,55.44
2019-04-14T09:41:52.419Z,55.04
2019-04-14T09:44:22.719Z,54.62
2019-04-14T09:46:52.902Z,54.38
2019-04-14T09:49:23.266Z,54.12
2019-04-14T09:51:53.537Z,53.73
2019-04-14T09:54:26.713Z,53.10
2019-04-14T09:56:57.043Z,53.10
2019-04-14T09:59:27.483Z,52.54
2019-04-14T10:01:58.112Z,52.19
2019-04-14T10:04:28.855Z,51.41
2019-04-14T10:06:59.052Z,51.13
2019-04-14T10:09:29.445Z,50.65
2019-04-14T10:11:59.692Z,50.03
2019-04-14T10:14:42.252Z,49.42
2019-04-14T10:17:12.801Z,49.05
2019-04-14T10:19:43.230Z,48.88
2019-04-14T10:22:13.937Z,48.43
2019-04-14T10:24:44.080Z,47.50
2019-04-14T10:27:14.364Z,47.81
2019-04-14T10:29:44.814Z,47.79
2019-04-14T10:32:16.829Z,47.31
2019-04-14T10:34:47.100Z,47.21
2019-04-14T10:37:17.326Z,46.86
2019-04-14T10:39:47.623Z,47.00
2019-04-14T10:42:17.938Z,46.36
2019-04-14T10:44:48.283Z,45.70
2019-04-14T10:47:18.594Z,45.59
2019-04-14T10:49:48.940Z,45.39
2019-04-14T10:52:19.286Z,44.92
2019-04-14T10:54:49.658Z,44.77
2019-04-14T10:57:19.985Z,44.45
2019-04-14T10:59:50.247Z,44.12
2019-04-14T11:02:20.519Z,43.54
2019-04-14T11:04:50.837Z,43.41
2019-04-14T11:07:25.441Z,43.29
2019-04-14T11:09:55.619Z,42.61
2019-04-14T11:12:25.776Z,42.25
2019-04-14T11:14:56.105Z,42.30
2019-04-14T11:17:26.205Z,42.33
2019-04-14T11:19:56.430Z,42.08
2019-04-14T11:22:29.812Z,41.90
2019-04-14T11:25:03.129Z,41.75
2019-04-14T11:27:33.376Z,41.49
2019-04-14T11:30:03.982Z,41.05
2019-04-14T11:32:45.660Z,41.07
2019-04-14T11:35:34.795Z,40.85
2019-04-14T11:38:23.859Z,40.43
2019-04-14T11:40:56.676Z,39.91
2019-04-14T11:43:27.043Z,40.08
2019-04-14T11:45:57.367Z,39.57
2019-04-14T11:48:27.670Z,38.94
2019-04-14T11:50:58.064Z,39.27
2019-04-14T11:53:28.365Z,39.40
2019-04-14T11:55:58.591Z,39.40
2019-04-14T11:58:29.387Z,39.60
2019-04-14T12:01:27.560Z,38.38
2019-04-14T12:04:15.436Z,38.69
2019-04-14T12:07:07.655Z,39.23
2019-04-14T12:09:43.815Z,39.10
2019-04-14T12:12:14.125Z,38.65
2019-04-14T12:14:44.591Z,37.45
2019-04-14T12:17:15.036Z,37.03
2019-04-14T12:19:45.464Z,37.40
2019-04-14T12:22:15.786Z,37.30
2019-04-14T12:24:46.430Z,36.98
2019-04-14T12:27:16.620Z,36.54
2019-04-14T12:29:47.944Z,33.53
2019-04-14T12:32:22.189Z,33.54
2019-04-14T12:34:54.346Z,33.52
2019-04-14T12:37:30.109Z,34.13
2019-04-14T12:40:03.387Z,33.99
2019-04-14T12:43:07.794Z,33.47
2019-04-14T12:45:55.716Z,32.53
2019-04-14T12:48:43.440Z,31.50
2019-04-14T12:51:32.676Z,31.70
2019-04-14T12:54:03.028Z,32.23
2019-04-14T12:56:33.297Z,31.41
2019-04-14T12:59:23.256Z,30.61
2019-04-14T13:02:16.057Z,29.78
2019-04-14T13:04:46.395Z,30.27
2019-04-14T13:07:16.748Z,29.84
2019-04-14T13:09:47.238Z,28.82
2019-04-14T13:12:17.529Z,28.38
2019-04-14T13:14:47.891Z,27.69
2019-04-14T13:17:18.110Z,27.36
2019-04-14T13:19:48.371Z,28.21
2019-04-14T13:22:18.674Z,29.41
2019-04-14T13:24:49.075Z,30.07
2019-04-14T13:27:19.433Z,31.11
2019-04-14T13:29:49.818Z,32.13
2019-04-14T13:32:20.059Z,32.14
2019-04-14T13:34:50.322Z,32.73
2019-04-14T13:37:20.708Z,33.54
2019-04-14T13:39:51.063Z,34.11
2019-04-14T13:42:21.372Z,34.53
2019-04-14T13:44:51.980Z,35.03
2019-04-14T13:47:22.170Z,35.30
2019-04-14T13:49:52.467Z,35.14
2019-04-14T13:52:22.906Z,35.31
2019-04-14T13:54:53.288Z,35.48
2019-04-14T13:57:23.611Z,35.89
2019-04-14T13:59:54.044Z,36.42
2019-04-14T14:02:24.346Z,36.98
2019-04-14T14:04:54.587Z,37.49
2019-04-14T14:07:24.888Z,38.04
2019-04-14T14:09:57.165Z,38.23
2019-04-14T14:12:32.762Z,38.76
2019-04-14T14:15:23.920Z,39.29
2019-04-14T14:18:11.341Z,39.81
2019-04-14T14:21:09.765Z,39.51
2019-04-14T14:23:59.226Z,39.34
2019-04-14T14:26:30.471Z,39.00
2019-04-14T14:29:03.262Z,38.24
2019-04-14T14:31:33.970Z,36.53
2019-04-14T14:34:04.791Z,35.32
2019-04-14T14:36:35.537Z,34.25
2019-04-14T14:39:15.275Z,33.17
2019-04-14T14:41:48.367Z,33.03
2019-04-14T14:44:25.658Z,32.99
2019-04-14T14:47:07.914Z,32.84
2019-04-14T14:50:20.890Z,33.02
2019-04-14T14:52:51.426Z,33.59
2019-04-14T14:55:21.987Z,34.06
2019-04-14T14:57:52.637Z,34.33
2019-04-14T15:00:30.499Z,34.46
2019-04-14T15:03:01.285Z,34.73
2019-04-14T15:05:32.000Z,34.67
2019-04-14T15:08:08.237Z,35.51
2019-04-14T15:10:41.704Z,36.37
2019-04-14T15:13:11.501Z,37.17
2019-04-14T15:15:42.069Z,37.40
2019-04-14T15:18:12.852Z,37.74
2019-04-14T15:20:43.507Z,37.92
2019-04-14T15:23:24.678Z,38.10
2019-04-14T15:25:49.673Z,38.55
2019-04-14T15:28:20.886Z,38.54
2019-04-14T15:30:51.465Z,38.83
2019-04-14T15:33:22.079Z,39.09
2019-04-14T15:35:52.632Z,38.77
2019-04-14T15:38:23.305Z,38.10
2019-04-14T15:40:53.879Z,37.64
2019-04-14T15:43:24.409Z,37.45
2019-04-14T15:45:55.151Z,37.64
2019-04-14T15:48:25.843Z,37.62
2019-04-14T15:50:56.459Z,37.90
2019-04-14T15:53:37.298Z,37.61
2019-04-14T15:55:59.486Z,37.85
2019-04-14T15:58:36.399Z,37.99
2019-04-14T16:01:41.222Z,38.17
2019-04-14T16:04:19.431Z,36.79
2019-04-14T16:07:05.897Z,36.37
2019-04-14T16:09:54.133Z,36.37
2019-04-14T16:12:55.587Z,36.30
2019-04-14T16:15:45.158Z,36.71
2019-04-14T16:18:40.659Z,37.49
2019-04-14T16:21:11.359Z,37.90
2019-04-14T16:23:50.354Z,37.82
2019-04-14T16:26:36.402Z,37.41
2019-04-14T16:29:34.526Z,37.32
2019-04-14T16:32:37.798Z,36.34
2019-04-14T16:35:12.654Z,36.64
2019-04-14T16:37:42.881Z,37.03
2019-04-14T16:40:13.303Z,37.09
2019-04-14T16:42:43.534Z,37.63
2019-04-14T16:45:15.020Z,37.98
2019-04-14T16:47:45.410Z,38.57
2019-04-14T16:50:15.661Z,39.38
2019-04-14T16:52:54.165Z,40.12
2019-04-14T16:55:32.833Z,40.72
2019-04-14T16:58:18.493Z,41.39
2019-04-14T17:00:53.117Z,42.11
2019-04-14T17:03:23.199Z,42.60
2019-04-14T17:05:53.771Z,42.80
2019-04-14T17:08:24.006Z,42.94
2019-04-14T17:10:54.238Z,43.09
2019-04-14T17:13:26.150Z,43.14
2019-04-14T17:16:13.953Z,43.47
2019-04-14T17:18:49.109Z,43.76
2019-04-14T17:21:38.196Z,44.25
2019-04-14T17:24:16.694Z,44.71
2019-04-14T17:26:56.667Z,45.34
2019-04-14T17:29:44.187Z,45.84
2019-04-14T17:32:30.355Z,46.04
2019-04-14T17:35:19.650Z,44.89
2019-04-14T17:37:56.344Z,44.95
2019-04-14T17:40:34.305Z,45.90
2019-04-14T17:43:13.037Z,46.31
2019-04-14T17:46:07.853Z,45.94
2019-04-14T17:48:51.001Z,45.06
2019-04-14T17:51:42.208Z,43.76
2019-04-14T17:54:31.680Z,43.11
2019-04-14T17:57:29.606Z,42.98
2019-04-14T18:00:21.136Z,43.24
2019-04-14T18:03:06.352Z,43.88
2019-04-14T18:05:47.170Z,44.75
2019-04-14T18:08:31.007Z,45.34
2019-04-14T18:11:23.143Z,46.00
2019-04-14T18:14:12.815Z,46.88
2019-04-14T18:16:57.358Z,47.85
2019-04-14T18:19:39.701Z,48.58
2019-04-14T18:22:09.857Z,49.29
2019-04-14T18:24:42.511Z,50.05
2019-04-14T18:27:12.022Z,50.69
2019-04-14T18:30:04.333Z,51.21
2019-04-14T18:32:39.507Z,51.77
2019-04-14T18:35:41.269Z,52.32
2019-04-14T18:38:29.057Z,52.72
2019-04-14T18:41:07.796Z,53.09
2019-04-14T18:44:02.518Z,53.63
2019-04-14T18:46:51.499Z,54.11
2019-04-14T18:49:27.296Z,54.48
2019-04-14T18:52:09.911Z,54.76
2019-04-14T18:55:17.155Z,55.15
2019-04-14T18:58:02.616Z,55.54
2019-04-14T19:00:57.176Z,55.92
2019-04-14T19:03:27.681Z,56.15
2019-04-14T19:05:58.197Z,56.40
2019-04-14T19:08:28.570Z,56.63
2019-04-14T19:11:16.288Z,56.89
2019-04-14T19:13:47.396Z,57.13
2019-04-14T19:16:22.634Z,57.26
2019-04-14T19:18:56.286Z,57.39
2019-04-14T19:21:28.734Z,57.59
2019-04-14T19:23:59.042Z,57.86
2019-04-14T19:26:29.317Z,58.09
2019-04-14T19:28:59.502Z,58.31
2019-04-14T19:31:29.807Z,58.59
2019-04-14T19:34:00.092Z,59.41
2019-04-14T19:36:30.135Z,59.39
2019-04-14T19:39:00.318Z,59.42
2019-04-14T19:41:30.481Z,59.54
2019-04-14T19:44:00.677Z,59.63
2019-04-14T19:46:30.898Z,59.79
2019-04-14T19:49:01.061Z,59.99
2019-04-14T19:51:31.221Z,60.09
2019-04-14T19:54:01.710Z,60.26
2019-04-14T19:56:32.419Z,60.33
2019-04-14T19:59:03.895Z,60.49
2019-04-14T20:01:34.540Z,60.62
2019-04-14T20:04:05.147Z,60.67
2019-04-14T20:06:35.675Z,60.74
2019-04-14T20:09:08.590Z,60.84
2019-04-14T20:11:39.032Z,60.96
2019-04-14T20:14:09.560Z,60.99
2019-04-14T20:17:06.141Z,61.03
2019-04-14T20:19:54.534Z,61.13
2019-04-14T20:22:30.646Z,61.22
2019-04-14T20:25:33.665Z,61.33
2019-04-14T20:28:03.279Z,61.43
2019-04-14T20:30:39.988Z,61.53
2019-04-14T20:33:10.702Z,61.63
2019-04-14T20:35:41.244Z,61.76
2019-04-14T20:38:11.743Z,61.88
2019-04-14T20:40:42.486Z,61.93
2019-04-14T20:43:13.324Z,62.02
2019-04-14T20:45:44.985Z,62.11
2019-04-14T20:48:17.022Z,62.21
2019-04-14T20:50:47.877Z,62.30
2019-04-14T20:53:18.391Z,62.44
2019-04-14T20:55:57.408Z,62.66
2019-04-14T20:58:31.793Z,62.79
2019-04-14T21:01:05.581Z,62.83
2019-04-14T21:03:52.878Z,62.96
2019-04-14T21:06:45.158Z,63.05
2019-04-14T21:09:22.685Z,63.12
2019-04-14T21:12:11.385Z,63.24
2019-04-14T21:15:03.813Z,63.32
2019-04-14T21:17:57.585Z,63.48
2019-04-14T21:20:46.278Z,63.60
2019-04-14T21:23:33.755Z,63.78
2019-04-14T21:26:09.744Z,63.86
2019-04-14T21:28:50.044Z,64.01
2019-04-14T21:31:40.225Z,64.08
2019-04-14T21:34:32.162Z,64.31
2019-04-14T21:37:12.171Z,64.48
2019-04-14T21:40:07.208Z,64.61
2019-04-14T21:42:37.877Z,64.73
2019-04-14T21:45:08.496Z,64.84
2019-04-14T21:47:38.722Z,64.94
2019-04-14T21:50:09.260Z,65.11
2019-04-14T21:52:42.266Z,65.34
2019-04-14T21:55:12.801Z,65.52
2019-04-14T21:57:52.071Z,65.67
2019-04-14T22:01:40.475Z,65.80
2019-04-14T22:04:20.972Z,65.88
2019-04-14T22:06:51.565Z,65.87
2019-04-14T22:09:33.656Z,65.97
2019-04-14T22:12:06.302Z,66.09
2019-04-14T22:14:36.584Z,66.13
2019-04-14T22:17:07.203Z,66.14
2019-04-14T22:19:37.551Z,66.20
2019-04-14T22:22:07.832Z,66.26
2019-04-14T22:24:38.012Z,66.40
2019-04-14T22:27:08.274Z,66.51
2019-04-14T22:29:38.572Z,66.62
2019-04-14T22:32:08.788Z,66.70
2019-04-14T22:34:38.991Z,66.74
2019-04-14T22:37:09.974Z,66.73
2019-04-14T22:39:40.190Z,66.85
2019-04-14T22:42:10.736Z,66.91
2019-04-14T22:44:40.961Z,67.08
2019-04-14T22:47:11.265Z,67.19
2019-04-14T22:49:41.439Z,67.22
2019-04-14T22:52:11.846Z,67.33
2019-04-14T22:54:42.088Z,67.43
2019-04-14T22:57:12.383Z,67.50
2019-04-14T22:59:42.455Z,67.52
2019-04-14T23:02:20.267Z,67.62
2019-04-14T23:05:10.683Z,67.64
2019-04-14T23:07:54.390Z,67.74
2019-04-14T23:10:39.840Z,67.85
2019-04-14T23:13:19.471Z,68.03
2019-04-14T23:16:08.027Z,68.18
2019-04-14T23:18:56.124Z,68.24
2019-04-14T23:21:46.014Z,68.36
2019-04-14T23:24:21.363Z,68.45
2019-04-14T23:26:53.205Z,68.53
2019-04-14T23:29:24.033Z,68.68
2019-04-14T23:31:54.412Z,68.82
2019-04-14T23:34:24.883Z,68.91
2019-04-14T23:36:55.318Z,69.01
2019-04-14T23:39:25.841Z,69.00
2019-04-14T23:41:56.426Z,69.07
2019-04-14T23:44:26.914Z,69.10
2019-04-14T23:46:57.256Z,69.08
2019-04-14T23:49:27.751Z,69.08
2019-04-14T23:51:58.185Z,69.00
2019-04-14T23:54:28.695Z,69.01
2019-04-14T23:57:05.469Z,69.03
2019-04-14T23:59:31.221Z,69.05
